Time;durP1;ratioP1;P1;durP2;ratioP2;P2;SDS_P1;SDS_P2;PMS_P1;PMS_P2;Temp;Humidity;BMP_temperature;BMP_pressure;BME280_temperature;BME280_humidity;BME280_pressure;Samples;Min_cycle;Max_cycle;Signal;HPM_P1;HPM_P2
2021/05/20 00:01:06;;;;;;;2.20;2.00;;;11.10;87.50;;;;;;5018286;28;20213;-91
2021/05/20 00:03:31;;;;;;;2.70;2.30;;;11.10;87.70;;;;;;5036631;28;20191;-90
2021/05/20 00:05:57;;;;;;;3.67;2.00;;;11.20;87.60;;;;;;5019903;28;20200;-91
2021/05/20 00:08:23;;;;;;;3.90;2.10;;;11.10;87.80;;;;;;5010950;28;20802;-89
2021/05/20 00:10:48;;;;;;;2.00;1.90;;;11.10;88.10;;;;;;5019321;28;20193;-89
2021/05/20 00:13:14;;;;;;;2.70;2.10;;;11.20;88.10;;;;;;5019544;28;20222;-90
2021/05/20 00:15:40;;;;;;;2.33;2.13;;;11.20;87.60;;;;;;5020654;28;20248;-90
2021/05/20 00:18:06;;;;;;;2.50;2.30;;;11.30;87.50;;;;;;5025712;28;20254;-89
2021/05/20 00:20:31;;;;;;;2.50;2.30;;;11.30;87.20;;;;;;5021893;28;20193;-89
2021/05/20 00:22:57;;;;;;;2.50;2.23;;;11.40;87.10;;;;;;5008654;28;20193;-89
2021/05/20 00:25:23;;;;;;;2.37;2.00;;;11.20;87.50;;;;;;5021777;28;20238;-89
2021/05/20 00:27:49;;;;;;;2.23;2.03;;;11.20;87.90;;;;;;5027294;28;20218;-89
2021/05/20 00:30:15;;;;;;;2.30;2.10;;;11.20;87.60;;;;;;5025134;28;20669;-90
2021/05/20 00:32:40;;;;;;;2.00;1.90;;;11.30;87.10;;;;;;5028204;28;20209;-89
2021/05/20 00:35:07;;;;;;;2.60;2.40;;;11.40;86.70;;;;;;4999978;28;20185;-89
2021/05/20 00:37:32;;;;;;;2.37;2.17;;;11.40;86.90;;;;;;5037328;28;20306;-89
2021/05/20 00:39:58;;;;;;;3.00;2.30;;;11.40;87.00;;;;;;5015471;28;20664;-89
2021/05/20 00:42:24;;;;;;;2.40;2.20;;;11.30;87.20;;;;;;5016040;28;20193;-88
2021/05/20 00:44:50;;;;;;;2.40;2.20;;;11.30;87.10;;;;;;5015082;28;20685;-88
2021/05/20 00:47:29;;;;;;;2.30;2.10;;;11.30;87.40;;;;;;5026792;28;20308;-88
2021/05/20 00:49:55;;;;;;;2.80;2.53;;;11.20;87.50;;;;;;5033905;28;20169;-88
2021/05/20 00:52:22;;;;;;;4.67;2.60;;;11.20;88.00;;;;;;5032859;28;20209;-88
2021/05/20 00:54:52;;;;;;;2.30;2.10;;;11.20;87.80;;;;;;5033298;28;20185;-88
2021/05/20 00:57:19;;;;;;;3.87;2.50;;;11.30;87.80;;;;;;5031956;28;20816;-88
2021/05/20 00:59:45;;;;;;;2.57;2.37;;;11.30;87.70;;;;;;5033322;28;20688;-89
2021/05/20 01:02:11;;;;;;;2.83;2.40;;;11.30;87.80;;;;;;5033693;28;20195;-88
2021/05/20 01:04:38;;;;;;;2.60;2.40;;;11.20;87.50;;;;;;5033116;28;20271;-88
2021/05/20 01:07:04;;;;;;;2.60;2.40;;;11.30;87.40;;;;;;5020713;28;20213;-88
2021/05/20 01:09:31;;;;;;;4.10;2.60;;;11.30;87.00;;;;;;5013184;28;20206;-89
2021/05/20 01:11:57;;;;;;;3.83;2.70;;;11.20;87.50;;;;;;5012716;28;20187;-88
2021/05/20 01:14:23;;;;;;;3.00;2.70;;;11.20;87.90;;;;;;5013213;28;20244;-89
2021/05/20 01:16:48;;;;;;;4.13;2.73;;;11.10;88.30;;;;;;5013371;28;20344;-88
2021/05/20 01:19:15;;;;;;;3.17;2.47;;;11.10;88.70;;;;;;5013427;28;20188;-88
2021/05/20 01:21:43;;;;;;;3.03;2.73;;;11.10;88.90;;;;;;5012779;28;20269;-88
2021/05/20 01:24:10;;;;;;;3.60;2.90;;;11.00;89.40;;;;;;5012736;28;20378;-88
2021/05/20 01:26:37;;;;;;;4.33;2.70;;;11.10;88.70;;;;;;5019389;28;20207;-88
2021/05/20 01:29:04;;;;;;;4.10;2.53;;;11.00;88.80;;;;;;5036714;28;20641;-88
2021/05/20 01:31:31;;;;;;;2.87;2.57;;;10.90;89.40;;;;;;5032616;28;20181;-88
2021/05/20 01:33:57;;;;;;;2.60;2.40;;;10.90;89.50;;;;;;5032179;28;20208;-88
2021/05/20 01:36:26;;;;;;;2.40;2.20;;;11.00;89.30;;;;;;5023209;28;20630;-88
2021/05/20 01:38:52;;;;;;;2.37;2.17;;;11.00;88.90;;;;;;5040970;28;20182;-88
2021/05/20 01:41:18;;;;;;;4.50;2.63;;;11.00;88.40;;;;;;5049259;28;20177;-89
2021/05/20 01:43:44;;;;;;;3.97;2.70;;;11.00;88.70;;;;;;5031320;28;20189;-88
2021/05/20 01:46:10;;;;;;;2.27;2.10;;;11.00;88.10;;;;;;5019307;28;20185;-88
2021/05/20 01:48:41;;;;;;;2.50;2.30;;;11.00;88.60;;;;;;5031753;28;20252;-89
2021/05/20 01:51:18;;;;;;;3.47;2.50;;;10.90;89.00;;;;;;5030363;28;20188;-88
2021/05/20 01:53:46;;;;;;;3.37;2.50;;;11.00;88.40;;;;;;5032695;28;20291;-87
2021/05/20 01:56:14;;;;;;;3.27;2.47;;;10.90;88.60;;;;;;5032231;28;20272;-89
2021/05/20 01:58:40;;;;;;;3.00;2.17;;;10.70;89.80;;;;;;5032041;28;20204;-88
2021/05/20 02:01:06;;;;;;;2.50;2.30;;;10.70;90.00;;;;;;5031480;28;20205;-88
2021/05/20 02:03:33;;;;;;;3.17;2.43;;;10.70;90.10;;;;;;5032598;28;20185;-89
2021/05/20 02:06:01;;;;;;;2.33;2.10;;;10.80;89.70;;;;;;5025629;28;20185;-88
2021/05/20 02:08:28;;;;;;;2.90;2.70;;;10.80;89.00;;;;;;5011940;28;20548;-88
2021/05/20 02:10:54;;;;;;;3.77;2.43;;;10.80;90.10;;;;;;4994371;28;20192;-88
2021/05/20 02:13:20;;;;;;;2.53;2.33;;;10.80;90.40;;;;;;5013202;28;20270;-88
2021/05/20 02:15:46;;;;;;;3.00;2.10;;;10.90;89.80;;;;;;4995702;28;20648;-88
2021/05/20 02:18:12;;;;;;;3.47;2.17;;;10.90;89.60;;;;;;5011348;28;20226;-88
2021/05/20 02:20:38;;;;;;;2.83;2.53;;;10.90;89.50;;;;;;5011786;28;20182;-88
2021/05/20 02:23:04;;;;;;;2.97;2.60;;;10.90;90.10;;;;;;5011686;28;20186;-88
2021/05/20 02:25:30;;;;;;;2.40;2.20;;;10.90;89.60;;;;;;4994172;28;20374;-88
2021/05/20 02:27:56;;;;;;;3.67;2.33;;;10.90;89.50;;;;;;5015771;28;20208;-89
2021/05/20 02:30:23;;;;;;;2.77;2.23;;;11.00;89.20;;;;;;5031892;28;20227;-88
2021/05/20 02:32:49;;;;;;;3.23;2.20;;;11.00;90.00;;;;;;5031773;28;20205;-88
2021/05/20 02:35:15;;;;;;;2.80;2.50;;;10.90;89.80;;;;;;5022851;28;20181;-88
2021/05/20 02:37:41;;;;;;;2.47;2.27;;;10.80;90.10;;;;;;5012359;28;20275;-89
2021/05/20 02:40:09;;;;;;;3.13;2.30;;;10.80;89.60;;;;;;5012052;28;20174;-88
2021/05/20 02:42:35;;;;;;;3.60;2.80;;;10.80;90.40;;;;;;5011430;28;20280;-88
2021/05/20 02:45:03;;;;;;;4.33;2.83;;;10.80;90.20;;;;;;5011066;28;20642;-88
2021/05/20 02:47:29;;;;;;;4.43;2.53;;;10.70;90.40;;;;;;5011100;28;20301;-88
2021/05/20 02:49:54;;;;;;;2.83;2.53;;;10.80;90.60;;;;;;5010585;28;20638;-88
2021/05/20 02:52:20;;;;;;;3.00;2.47;;;10.80;89.50;;;;;;5011042;28;20208;-88
2021/05/20 02:54:46;;;;;;;2.60;2.40;;;10.80;89.60;;;;;;5011169;28;20703;-88
2021/05/20 02:57:11;;;;;;;3.67;2.63;;;10.80;89.10;;;;;;4993257;28;20212;-88
2021/05/20 02:59:37;;;;;;;2.83;2.43;;;10.80;88.20;;;;;;5011656;28;20209;-88
2021/05/20 03:02:05;;;;;;;3.57;2.60;;;10.80;89.40;;;;;;5011226;28;20653;-88
2021/05/20 03:04:32;;;;;;;3.63;2.53;;;10.70;89.00;;;;;;4993388;28;20222;-88
2021/05/20 03:06:58;;;;;;;2.90;2.60;;;10.60;89.40;;;;;;5021878;28;20224;-88
2021/05/20 03:09:25;;;;;;;3.17;2.70;;;10.70;89.40;;;;;;5052188;22;20229;-89
2021/05/20 03:11:52;;;;;;;3.63;2.33;;;10.60;89.20;;;;;;4992744;28;20174;-90
2021/05/20 03:14:18;;;;;;;4.63;2.50;;;10.60;89.40;;;;;;4981678;28;20185;-90
2021/05/20 03:16:44;;;;;;;3.20;2.90;;;10.70;89.20;;;;;;4998776;28;20238;-90
2021/05/20 03:19:09;;;;;;;2.60;2.40;;;10.70;88.70;;;;;;4999246;28;20201;-89
2021/05/20 03:21:35;;;;;;;2.77;2.47;;;10.60;89.20;;;;;;4999235;28;20208;-90
2021/05/20 03:24:01;;;;;;;3.03;2.80;;;10.60;88.70;;;;;;4999207;28;20174;-89
2021/05/20 03:26:27;;;;;;;3.93;2.83;;;10.60;88.60;;;;;;4997973;28;20209;-90
2021/05/20 03:28:52;;;;;;;5.13;3.07;;;10.50;89.30;;;;;;4998473;28;20201;-90
2021/05/20 03:31:18;;;;;;;3.00;2.63;;;10.50;89.10;;;;;;4998923;28;20198;-89
2021/05/20 03:33:44;;;;;;;4.57;2.63;;;10.40;89.70;;;;;;5002736;28;20206;-89
2021/05/20 03:36:10;;;;;;;2.93;2.60;;;10.40;89.60;;;;;;4987722;28;20189;-90
2021/05/20 03:38:36;;;;;;;2.87;2.67;;;10.40;89.20;;;;;;5002476;28;20187;-90
2021/05/20 03:41:03;;;;;;;3.07;2.60;;;10.50;89.20;;;;;;4999492;28;20692;-90
2021/05/20 03:43:36;;;;;;;2.83;2.53;;;10.50;89.20;;;;;;4999483;28;20183;-90
2021/05/20 03:46:02;;;;;;;3.03;2.33;;;10.50;89.40;;;;;;4982564;28;20186;-90
2021/05/20 03:48:29;;;;;;;2.90;2.70;;;10.60;88.90;;;;;;4999075;28;20179;-90
2021/05/20 03:50:55;;;;;;;3.13;2.33;;;10.50;89.40;;;;;;4998848;28;20542;-90
2021/05/20 03:53:21;;;;;;;2.70;2.50;;;10.40;89.30;;;;;;4980772;28;20199;-90
2021/05/20 03:55:48;;;;;;;3.00;2.40;;;10.50;89.70;;;;;;5013218;28;20213;-90
2021/05/20 03:58:14;;;;;;;2.70;2.50;;;10.50;89.60;;;;;;5018231;28;20706;-90
2021/05/20 04:00:40;;;;;;;3.80;3.40;;;10.60;88.90;;;;;;5000701;28;20260;-89
2021/05/20 04:03:06;;;;;;;6.47;3.13;;;10.60;89.00;;;;;;5017230;28;20193;-90
2021/05/20 04:05:32;;;;;;;3.10;2.73;;;10.70;88.70;;;;;;5018367;28;20182;-90
2021/05/20 04:08:24;;;;;;;2.93;2.47;;;10.70;88.80;;;;;;5018079;28;20181;-89
2021/05/20 04:10:50;;;;;;;5.00;2.67;;;10.70;88.80;;;;;;5013662;28;20838;-90
2021/05/20 04:13:32;;;;;;;3.93;2.90;;;10.60;89.50;;;;;;5018474;28;20201;-90
2021/05/20 04:15:59;;;;;;;2.77;2.57;;;10.70;89.00;;;;;;5018046;28;20193;-90
2021/05/20 04:18:24;;;;;;;3.10;2.70;;;10.70;89.20;;;;;;5021120;28;20178;-90
2021/05/20 04:20:50;;;;;;;3.83;2.80;;;10.70;88.60;;;;;;5022350;28;20198;-91
2021/05/20 04:23:17;;;;;;;2.97;2.67;;;10.80;87.90;;;;;;5024357;28;20193;-89
2021/05/20 04:25:43;;;;;;;3.13;2.93;;;10.90;87.80;;;;;;5037614;28;20749;-90
2021/05/20 04:28:09;;;;;;;3.23;2.93;;;11.00;87.50;;;;;;5040314;28;20184;-90
2021/05/20 04:30:35;;;;;;;3.20;2.80;;;11.00;86.90;;;;;;5023561;28;20201;-90
2021/05/20 04:33:02;;;;;;;5.83;3.33;;;11.10;87.40;;;;;;5022062;28;20255;-90
2021/05/20 04:35:27;;;;;;;2.70;2.50;;;11.10;87.00;;;;;;5040543;28;20233;-90
2021/05/20 04:37:53;;;;;;;3.93;2.80;;;11.10;86.70;;;;;;5023633;28;20213;-90
2021/05/20 04:40:19;;;;;;;3.90;2.80;;;11.20;85.90;;;;;;5042182;28;20202;-90
2021/05/20 04:42:44;;;;;;;3.40;2.70;;;11.10;86.80;;;;;;5041785;28;20271;-90
2021/05/20 04:45:11;;;;;;;2.83;2.63;;;11.10;87.40;;;;;;5041555;28;20181;-90
2021/05/20 04:47:36;;;;;;;2.90;2.60;;;11.10;86.80;;;;;;5023522;28;20185;-90
2021/05/20 04:50:03;;;;;;;3.07;2.83;;;11.00;86.00;;;;;;5035866;28;20300;-90
2021/05/20 04:52:28;;;;;;;3.30;3.00;;;11.00;87.10;;;;;;5021580;28;20309;-90
2021/05/20 04:54:54;;;;;;;4.77;2.90;;;11.00;86.70;;;;;;5002295;28;20217;-90
2021/05/20 04:57:20;;;;;;;4.13;3.20;;;11.00;86.70;;;;;;5003539;28;20258;-90
2021/05/20 04:59:45;;;;;;;5.50;3.43;;;10.90;87.30;;;;;;5020208;28;20201;-90
2021/05/20 05:02:11;;;;;;;3.53;3.23;;;11.00;87.60;;;;;;5021243;28;20210;-90
2021/05/20 05:04:37;;;;;;;9.33;3.90;;;11.00;87.20;;;;;;5021062;28;20272;-90
2021/05/20 05:07:02;;;;;;;4.30;2.80;;;11.10;87.80;;;;;;5002667;28;20195;-90
2021/05/20 05:09:28;;;;;;;3.77;3.47;;;11.10;87.60;;;;;;5021132;28;20223;-90
2021/05/20 05:11:54;;;;;;;3.83;3.00;;;11.20;86.30;;;;;;5021067;28;20228;-90
2021/05/20 05:14:19;;;;;;;4.27;3.17;;;11.10;87.20;;;;;;5003417;28;20186;-90
2021/05/20 05:16:45;;;;;;;4.53;2.83;;;11.10;87.60;;;;;;5019154;28;20747;-90
2021/05/20 05:19:10;;;;;;;4.30;2.73;;;11.10;88.30;;;;;;5003400;28;20319;-90
2021/05/20 05:21:36;;;;;;;3.63;3.13;;;11.20;86.80;;;;;;5021100;28;20229;-90
2021/05/20 05:24:02;;;;;;;2.97;2.70;;;11.20;86.70;;;;;;5033671;28;20193;-90
2021/05/20 05:26:28;;;;;;;3.30;3.00;;;11.10;88.00;;;;;;5020191;28;20187;-90
2021/05/20 05:28:54;;;;;;;3.77;3.07;;;11.20;88.70;;;;;;5021851;28;20204;-90
2021/05/20 05:31:23;;;;;;;3.50;3.20;;;11.10;88.80;;;;;;5001692;28;20275;-90
2021/05/20 05:33:49;;;;;;;3.07;2.77;;;11.20;88.30;;;;;;5001612;28;20228;-90
2021/05/20 05:36:15;;;;;;;3.93;2.80;;;11.20;88.40;;;;;;5001297;28;20244;-90
2021/05/20 05:38:41;;;;;;;4.63;3.07;;;11.30;87.90;;;;;;5001598;28;20193;-90
2021/05/20 05:41:06;;;;;;;3.33;3.03;;;11.30;88.50;;;;;;5001234;28;20220;-90
2021/05/20 05:43:32;;;;;;;3.10;2.90;;;11.30;88.80;;;;;;4999754;28;20205;-90
2021/05/20 05:45:58;;;;;;;3.20;2.90;;;11.40;89.10;;;;;;5019364;28;20185;-90
2021/05/20 05:48:23;;;;;;;3.37;3.07;;;11.40;89.40;;;;;;5019421;28;20617;-91
2021/05/20 05:50:51;;;;;;;3.20;3.00;;;11.40;89.40;;;;;;5014377;28;20249;-90
2021/05/20 05:53:18;;;;;;;3.70;3.40;;;11.50;88.10;;;;;;5017663;28;20199;-90
2021/05/20 05:55:43;;;;;;;5.10;3.13;;;11.40;87.10;;;;;;5021843;28;20813;-90
2021/05/20 05:58:09;;;;;;;4.30;3.90;;;11.40;86.80;;;;;;4998700;28;20285;-89
2021/05/20 06:00:35;;;;;;;4.10;3.53;;;11.30;87.10;;;;;;5036018;28;20213;-89
2021/05/20 06:03:01;;;;;;;4.10;3.20;;;11.40;87.70;;;;;;5034442;28;20189;-90
2021/05/20 06:05:26;;;;;;;3.77;3.47;;;11.40;87.80;;;;;;5023588;28;20178;-90
2021/05/20 06:07:52;;;;;;;3.80;3.50;;;11.40;88.30;;;;;;4985832;28;20525;-90
2021/05/20 06:10:20;;;;;;;5.23;4.07;;;11.50;87.00;;;;;;5000927;28;20218;-90
2021/05/20 06:12:45;;;;;;;3.70;3.40;;;11.50;87.60;;;;;;5010701;28;20233;-90
2021/05/20 06:15:11;;;;;;;4.07;3.67;;;11.60;86.60;;;;;;4985406;28;20193;-90
2021/05/20 06:17:37;;;;;;;3.80;3.50;;;11.70;87.10;;;;;;5019137;28;20183;-90
2021/05/20 06:20:05;;;;;;;4.23;3.70;;;11.80;85.70;;;;;;5022205;28;20202;-90
2021/05/20 06:22:30;;;;;;;4.30;3.93;;;11.80;85.20;;;;;;5016825;28;20190;-88
2021/05/20 06:24:56;;;;;;;4.23;3.93;;;11.80;84.90;;;;;;5018133;28;20577;-89
2021/05/20 06:27:26;;;;;;;3.93;3.63;;;11.70;85.80;;;;;;5017804;28;20190;-88
2021/05/20 06:29:52;;;;;;;3.87;3.47;;;11.60;85.50;;;;;;5021057;28;20213;-89
2021/05/20 06:32:18;;;;;;;4.50;4.10;;;11.70;86.40;;;;;;5018391;28;20224;-89
2021/05/20 06:34:44;;;;;;;4.63;4.00;;;11.70;86.20;;;;;;5017977;28;20595;-90
2021/05/20 06:37:10;;;;;;;5.93;4.40;;;11.80;87.00;;;;;;5017543;28;20186;-89
2021/05/20 06:39:35;;;;;;;6.73;4.30;;;11.80;85.40;;;;;;5000500;28;20297;-89
2021/05/20 06:42:01;;;;;;;4.43;4.03;;;11.60;86.10;;;;;;5017930;28;20182;-90
2021/05/20 06:44:26;;;;;;;4.10;3.80;;;11.70;86.10;;;;;;5017443;28;20175;-89
2021/05/20 06:46:52;;;;;;;5.73;4.30;;;11.80;84.80;;;;;;4984037;28;20191;-89
2021/05/20 06:49:18;;;;;;;4.17;3.77;;;12.00;85.20;;;;;;5001155;28;20293;-89
2021/05/20 06:51:43;;;;;;;3.83;3.53;;;12.20;85.30;;;;;;5009680;28;20179;-89
2021/05/20 06:54:09;;;;;;;4.00;3.70;;;12.30;84.30;;;;;;4998369;28;20571;-89
2021/05/20 06:56:36;;;;;;;4.07;3.77;;;12.20;84.20;;;;;;5007518;28;20207;-89
2021/05/20 07:01:46;;;;;;;4.20;3.80;;;12.50;83.60;;;;;;5016783;28;20197;-89
2021/05/20 07:04:13;;;;;;;4.33;3.87;;;12.70;83.90;;;;;;4983582;28;20211;-89
2021/05/20 07:06:39;;;;;;;4.10;3.77;;;13.00;81.50;;;;;;5013020;28;20191;-90
2021/05/20 07:09:05;;;;;;;3.97;3.57;;;13.10;79.80;;;;;;4990508;28;20673;-89
2021/05/20 07:11:31;;;;;;;4.00;3.40;;;13.10;80.00;;;;;;5013840;28;20196;-90
2021/05/20 07:13:58;;;;;;;4.20;3.80;;;13.00;80.90;;;;;;4999999;28;20207;-89
2021/05/20 07:16:23;;;;;;;3.73;3.37;;;13.20;82.70;;;;;;5007413;28;20221;-90
2021/05/20 07:18:49;;;;;;;6.13;3.50;;;13.10;82.00;;;;;;5015534;28;20216;-89
2021/05/20 07:21:15;;;;;;;4.07;3.50;;;13.20;83.40;;;;;;5010849;28;20265;-90
2021/05/20 07:23:40;;;;;;;4.23;3.93;;;13.40;78.70;;;;;;4998216;28;20192;-89
2021/05/20 07:26:06;;;;;;;4.00;3.70;;;13.50;77.50;;;;;;5005731;28;20188;-90
2021/05/20 07:28:32;;;;;;;4.10;3.80;;;13.20;77.80;;;;;;5014804;28;20253;-89
2021/05/20 07:30:57;;;;;;;4.10;3.00;;;13.10;78.50;;;;;;5012708;28;20686;-89
2021/05/20 07:33:24;;;;;;;3.70;3.40;;;13.00;76.60;;;;;;5011553;28;20677;-89
2021/05/20 07:35:50;;;;;;;4.40;3.37;;;13.10;77.60;;;;;;4977869;28;20197;-89
2021/05/20 07:38:16;;;;;;;3.80;3.43;;;13.20;77.80;;;;;;5024319;28;20188;-89
2021/05/20 07:40:41;;;;;;;3.67;3.37;;;13.40;80.00;;;;;;5019291;28;20267;-89
2021/05/20 07:43:07;;;;;;;4.63;3.20;;;13.70;75.50;;;;;;5021936;28;20188;-90
2021/05/20 07:45:33;;;;;;;3.37;3.07;;;13.80;74.30;;;;;;5017923;28;20204;-90
2021/05/20 07:47:59;;;;;;;4.27;3.37;;;13.50;74.30;;;;;;5006646;28;20338;-90
2021/05/20 07:50:25;;;;;;;3.20;3.00;;;13.50;73.80;;;;;;5007030;28;20243;-90
2021/05/20 07:52:50;;;;;;;3.80;3.50;;;13.60;76.00;;;;;;5016320;28;20212;-89
2021/05/20 07:55:16;;;;;;;4.50;3.30;;;13.60;74.10;;;;;;5017439;28;20713;-89
2021/05/20 07:57:43;;;;;;;3.83;3.53;;;13.40;75.80;;;;;;5008609;28;20214;-89
2021/05/20 08:00:12;;;;;;;3.67;3.00;;;13.20;76.70;;;;;;5006990;28;20212;-90
2021/05/20 08:02:50;;;;;;;3.60;3.30;;;13.30;77.40;;;;;;5013133;28;20554;-89
2021/05/20 08:05:27;;;;;;;5.10;3.40;;;13.40;75.40;;;;;;5016484;28;20699;-89
2021/05/20 08:08:17;;;;;;;3.33;3.13;;;13.60;75.30;;;;;;5019051;28;20654;-89
2021/05/20 08:13:44;;;;;;;3.20;2.90;;;13.50;75.30;;;;;;4921929;29;20270;-89
2021/05/20 08:16:10;;;;;;;5.57;3.30;;;13.70;74.80;;;;;;5004566;28;20246;-89
2021/05/20 08:18:36;;;;;;;3.17;2.97;;;13.60;72.60;;;;;;5001793;28;20292;-90
2021/05/20 08:21:03;;;;;;;2.73;2.53;;;13.60;72.80;;;;;;5002098;28;20212;-89
2021/05/20 08:23:31;;;;;;;4.53;2.90;;;13.70;72.80;;;;;;5013241;28;20193;-89
2021/05/20 08:25:56;;;;;;;3.40;3.10;;;13.70;72.70;;;;;;5009024;28;20262;-90
2021/05/20 08:28:22;;;;;;;3.73;3.00;;;13.60;74.70;;;;;;4992826;28;20229;-89
2021/05/20 08:30:48;;;;;;;3.10;2.80;;;13.80;73.20;;;;;;5011114;28;20204;-90
2021/05/20 08:33:13;;;;;;;4.27;2.73;;;13.90;74.50;;;;;;4979430;28;20233;-89
2021/05/20 08:35:39;;;;;;;3.50;3.10;;;14.20;74.00;;;;;;5009649;28;20196;-89
2021/05/20 08:38:05;;;;;;;3.53;3.23;;;14.20;70.70;;;;;;5017427;28;20184;-89
2021/05/20 08:40:31;;;;;;;3.20;3.00;;;14.60;70.80;;;;;;5018939;28;20288;-89
2021/05/20 08:42:57;;;;;;;3.50;3.20;;;14.70;72.10;;;;;;5018142;28;20713;-89
2021/05/20 08:45:25;;;;;;;3.27;2.90;;;14.80;69.60;;;;;;5010502;28;20273;-89
2021/05/20 08:47:54;;;;;;;2.70;2.50;;;15.00;69.20;;;;;;5016430;28;20249;-89
2021/05/20 08:50:22;;;;;;;2.60;2.40;;;15.00;69.10;;;;;;5018622;28;20234;-90
2021/05/20 08:52:48;;;;;;;3.20;2.83;;;15.20;67.90;;;;;;5018345;28;20205;-87
2021/05/20 08:55:17;;;;;;;2.97;2.63;;;15.20;66.10;;;;;;5013641;28;20188;-88
2021/05/20 08:57:44;;;;;;;3.00;2.60;;;15.40;66.60;;;;;;5004781;28;20186;-89
2021/05/20 09:00:13;;;;;;;2.83;2.57;;;15.50;66.40;;;;;;5017682;28;20703;-87
2021/05/20 09:02:39;;;;;;;2.70;2.50;;;15.60;65.20;;;;;;5010480;28;20183;-89
2021/05/20 09:05:16;;;;;;;2.70;2.50;;;15.50;65.20;;;;;;5016829;28;20189;-90
2021/05/20 09:07:43;;;;;;;4.03;3.13;;;15.00;66.30;;;;;;5016517;28;20276;-90
2021/05/20 09:10:14;;;;;;;4.53;3.20;;;15.00;69.00;;;;;;5009353;28;20226;-89
2021/05/20 09:12:41;;;;;;;4.47;3.40;;;15.00;68.10;;;;;;5007543;28;20217;-89
2021/05/20 09:15:18;;;;;;;3.53;3.23;;;14.70;70.90;;;;;;4980006;28;20182;-89
2021/05/20 09:17:45;;;;;;;2.87;2.67;;;14.30;73.60;;;;;;5019525;28;20543;-88
2021/05/20 09:20:12;;;;;;;3.83;2.70;;;14.10;73.00;;;;;;4988214;28;20220;-88
2021/05/20 09:22:38;;;;;;;4.20;3.00;;;13.80;74.80;;;;;;4974265;28;20201;-89
2021/05/20 09:25:05;;;;;;;3.53;3.17;;;13.70;77.40;;;;;;5013463;28;20189;-88
2021/05/20 09:27:37;;;;;;;3.87;3.43;;;13.80;77.10;;;;;;5014587;28;20188;-88
2021/05/20 09:30:11;;;;;;;3.07;2.57;;;13.90;78.30;;;;;;4995602;28;20215;-88
2021/05/20 09:33:08;;;;;;;2.83;2.50;;;14.20;75.80;;;;;;5016212;28;20300;-89
2021/05/20 09:35:51;;;;;;;2.57;2.37;;;14.50;74.10;;;;;;5017281;28;20189;-89
2021/05/20 09:38:20;;;;;;;2.30;2.20;;;14.80;74.40;;;;;;5036161;28;20208;-88
2021/05/20 09:40:57;;;;;;;3.53;2.77;;;15.00;72.30;;;;;;5023351;28;20212;-90
2021/05/20 09:43:34;;;;;;;2.90;2.70;;;15.20;71.90;;;;;;4990367;28;20673;-88
2021/05/20 09:46:02;;;;;;;2.60;2.40;;;15.00;69.60;;;;;;5015769;28;20230;-89
2021/05/20 09:48:37;;;;;;;2.50;2.30;;;15.00;69.50;;;;;;5014665;28;20194;-89
2021/05/20 09:51:04;;;;;;;2.40;2.20;;;15.40;68.90;;;;;;5014069;28;20218;-90
2021/05/20 09:53:30;;;;;;;3.43;2.03;;;15.60;65.50;;;;;;5005716;28;20221;-89
2021/05/20 09:56:01;;;;;;;3.63;2.00;;;15.80;62.70;;;;;;5001517;28;20179;-89
2021/05/20 09:58:32;;;;;;;2.10;2.00;;;16.10;62.10;;;;;;5012797;28;20190;-89
2021/05/20 10:01:02;;;;;;;3.70;3.33;;;16.20;62.50;;;;;;5011426;28;20578;-89
2021/05/20 10:03:29;;;;;;;2.90;2.60;;;16.30;61.60;;;;;;5006716;28;20206;-89
2021/05/20 10:05:59;;;;;;;3.20;2.70;;;16.30;63.20;;;;;;5015619;28;20187;-90
2021/05/20 10:08:28;;;;;;;3.33;3.07;;;16.50;63.60;;;;;;5010764;28;20197;-90
2021/05/20 10:10:56;;;;;;;3.50;3.20;;;16.70;62.50;;;;;;5001198;28;20224;-90
2021/05/20 10:13:23;;;;;;;3.50;3.20;;;17.10;61.50;;;;;;4990730;28;20213;-89
2021/05/20 10:15:50;;;;;;;3.67;3.37;;;16.90;62.70;;;;;;5013817;28;20265;-90
2021/05/20 10:18:25;;;;;;;3.23;3.00;;;17.20;61.40;;;;;;5003760;28;20493;-89
2021/05/20 10:20:55;;;;;;;3.53;3.23;;;17.10;64.60;;;;;;4997008;28;20208;-89
2021/05/20 10:23:22;;;;;;;3.23;2.80;;;16.60;62.20;;;;;;5015488;28;20186;-90
2021/05/20 10:25:52;;;;;;;4.20;3.20;;;16.50;63.50;;;;;;5013653;28;20313;-88
2021/05/20 10:28:19;;;;;;;3.70;3.37;;;17.00;62.30;;;;;;5014933;28;20194;-88
2021/05/20 10:30:46;;;;;;;3.43;2.87;;;17.10;63.00;;;;;;5010966;28;20289;-88
2021/05/20 10:33:13;;;;;;;2.50;2.33;;;17.40;60.40;;;;;;4995899;28;20277;-88
2021/05/20 10:35:43;;;;;;;2.70;2.50;;;17.40;60.30;;;;;;4999313;28;20239;-88
2021/05/20 10:38:10;;;;;;;2.60;2.40;;;17.80;57.40;;;;;;5004024;28;20292;-88
2021/05/20 10:40:36;;;;;;;3.03;2.83;;;17.80;57.90;;;;;;5017374;28;20210;-88
2021/05/20 10:43:11;;;;;;;2.73;2.53;;;17.30;58.40;;;;;;5017091;28;20198;-88
2021/05/20 10:45:56;;;;;;;2.80;2.60;;;17.30;59.10;;;;;;5017687;28;20214;-88
2021/05/20 10:48:23;;;;;;;6.13;3.13;;;17.50;58.00;;;;;;5012384;28;20214;-88
2021/05/20 10:50:52;;;;;;;3.60;2.80;;;17.30;57.80;;;;;;5010348;28;20816;-88
2021/05/20 10:53:39;;;;;;;4.27;2.57;;;17.10;59.10;;;;;;5017132;28;20205;-88
2021/05/20 10:56:29;;;;;;;2.20;2.10;;;17.60;58.80;;;;;;5013344;28;20209;-88
2021/05/20 10:58:55;;;;;;;2.10;2.00;;;17.90;54.90;;;;;;5017746;28;20193;-88
2021/05/20 11:01:20;;;;;;;3.17;1.93;;;18.20;54.50;;;;;;5009913;28;20230;-88
2021/05/20 11:03:46;;;;;;;4.73;2.30;;;18.30;53.10;;;;;;5016882;28;20231;-88
2021/05/20 11:06:12;;;;;;;1.97;1.87;;;17.70;54.70;;;;;;5017563;28;20189;-88
2021/05/20 11:08:38;;;;;;;2.10;1.90;;;17.60;55.50;;;;;;5026182;28;20219;-88
2021/05/20 11:11:03;;;;;;;4.47;1.97;;;17.60;57.00;;;;;;5006710;28;20567;-88
2021/05/20 11:13:37;;;;;;;3.10;2.47;;;17.90;54.70;;;;;;5002712;28;20231;-88
2021/05/20 11:16:18;;;;;;;2.40;2.20;;;17.60;54.90;;;;;;5013324;28;20647;-88
2021/05/20 11:18:48;;;;;;;2.53;2.33;;;17.50;56.80;;;;;;5015425;28;20184;-88
2021/05/20 11:21:14;;;;;;;2.77;2.57;;;17.10;57.80;;;;;;5017624;28;20436;-88
2021/05/20 11:23:40;;;;;;;2.87;2.57;;;17.20;58.80;;;;;;5017001;28;20272;-88
2021/05/20 11:26:11;;;;;;;2.63;2.43;;;16.90;60.40;;;;;;5014467;28;20195;-88
2021/05/20 11:28:42;;;;;;;2.80;2.60;;;17.00;60.50;;;;;;5014120;28;20193;-88
2021/05/20 11:31:09;;;;;;;2.80;2.60;;;17.00;59.40;;;;;;5015566;28;20217;-88
2021/05/20 11:33:53;;;;;;;4.37;2.80;;;16.70;59.00;;;;;;5010090;28;20205;-88
2021/05/20 11:36:20;;;;;;;3.53;2.80;;;16.60;61.10;;;;;;5013663;28;20178;-89
2021/05/20 11:38:56;;;;;;;3.20;3.00;;;16.70;61.10;;;;;;5025995;28;20824;-88
2021/05/20 11:41:22;;;;;;;3.27;2.97;;;16.60;62.30;;;;;;5008456;28;20217;-88
2021/05/20 11:44:00;;;;;;;3.23;3.03;;;16.40;63.00;;;;;;4996555;28;20195;-88
2021/05/20 11:46:25;;;;;;;3.80;3.20;;;16.30;62.00;;;;;;5015865;28;20648;-88
2021/05/20 11:49:05;;;;;;;4.27;3.30;;;16.20;63.40;;;;;;5005484;28;20230;-88
2021/05/20 11:51:43;;;;;;;4.20;3.03;;;16.20;63.00;;;;;;5016530;28;20186;-89
2021/05/20 11:54:14;;;;;;;3.23;3.03;;;16.20;62.80;;;;;;5019483;28;20215;-89
2021/05/20 11:56:48;;;;;;;3.50;3.20;;;16.60;63.00;;;;;;5019718;28;20221;-89
2021/05/20 11:59:14;;;;;;;3.70;3.13;;;16.80;59.10;;;;;;5018983;28;20197;-88
2021/05/20 12:01:43;;;;;;;3.20;3.00;;;16.90;59.70;;;;;;5015340;28;20195;-88
2021/05/20 12:04:08;;;;;;;4.47;2.70;;;17.00;61.30;;;;;;5014659;28;20201;-88
2021/05/20 12:06:35;;;;;;;4.20;2.80;;;17.20;59.80;;;;;;5017077;28;20272;-88
2021/05/20 12:09:07;;;;;;;3.20;2.90;;;17.00;59.20;;;;;;5018082;28;20192;-88
2021/05/20 12:11:33;;;;;;;3.03;2.80;;;17.00;59.40;;;;;;5018346;28;20194;-88
2021/05/20 12:13:59;;;;;;;3.20;3.00;;;17.40;58.50;;;;;;5021671;28;20218;-89
2021/05/20 12:16:33;;;;;;;3.93;3.13;;;17.90;57.70;;;;;;5058866;22;20236;-88
2021/05/20 12:18:59;;;;;;;2.87;2.67;;;17.90;56.60;;;;;;5023769;28;20177;-88
2021/05/20 12:21:25;;;;;;;3.80;2.90;;;17.60;57.20;;;;;;5037065;28;20189;-88
2021/05/20 12:23:56;;;;;;;4.17;2.90;;;17.10;57.70;;;;;;5046042;28;20203;-88
2021/05/20 12:26:24;;;;;;;3.17;2.87;;;17.20;58.50;;;;;;5024447;28;20224;-88
2021/05/20 12:28:50;;;;;;;3.07;2.70;;;17.30;57.10;;;;;;5021327;28;20197;-88
2021/05/20 12:31:17;;;;;;;5.70;3.13;;;17.20;57.10;;;;;;5033253;28;20193;-88
2021/05/20 12:33:46;;;;;;;2.67;2.47;;;17.50;58.40;;;;;;5030344;28;20212;-88
2021/05/20 12:36:30;;;;;;;2.70;2.50;;;18.00;55.60;;;;;;5024540;28;20213;-89
2021/05/20 12:38:56;;;;;;;3.77;2.80;;;18.20;53.20;;;;;;5027831;28;20241;-88
2021/05/20 12:41:32;;;;;;;2.93;2.43;;;17.90;55.20;;;;;;5025505;28;20277;-88
2021/05/20 12:44:10;;;;;;;3.10;2.80;;;17.60;56.00;;;;;;5026250;28;20197;-89
2021/05/20 12:46:36;;;;;;;2.40;2.30;;;17.50;56.30;;;;;;5007476;28;20647;-88
2021/05/20 12:49:02;;;;;;;3.03;2.83;;;17.50;56.30;;;;;;5025527;28;20201;-88
2021/05/20 12:51:27;;;;;;;3.00;2.80;;;17.60;56.70;;;;;;5008127;28;20193;-89
2021/05/20 12:53:58;;;;;;;2.80;2.60;;;17.80;56.00;;;;;;5020399;28;20264;-88
2021/05/20 12:56:31;;;;;;;4.23;3.10;;;17.80;55.50;;;;;;4982759;28;20217;-87